Pleasant Hill, Ohio
Current Conditions -  °F | °C
As of 4:56 AM on Tuesday 21 Oct 2014 (Local Time) from KDAY Reporting Station
Overcast Overcast  
Wind Chill: 50°   Ceiling: 6000
Heat Index: 50°   Visibility: 10mi
Dew Point: 46°   Wind: 9mph
Humidity: 86%   Direction: 310°NW
Pressure: 29.93"   Gusts: NA
Location:  40.05°N, 84.34°W
Report Text: KDAY 210856Z 31008KT 10SM FEW042 OVC060 10/08 A2993 RMK AO2 SLP134 60000 T01000078 53003
Loading
Personal Weather Stations






























Interactive Weather Map
Tropical Storm Tracking
New forecast layout! Learn more

10-Day Weather Forecast

Advertisements
Track Severe Weather on mobile